Time;durP1;ratioP1;P1;durP2;ratioP2;P2;SDS_P1;SDS_P2;PMS_P1;PMS_P2;Temp;Humidity;BMP_temperature;BMP_pressure;BME280_temperature;BME280_humidity;BME280_pressure;Samples;Min_cycle;Max_cycle;Signal;HPM_P1;HPM_P2
2022/02/11 00:01:55;;;;;;;49.20;34.10;;;;;;;2.71;100.00;101416.55;1708139;82;21043;-86
2022/02/11 00:04:33;;;;;;;48.42;33.60;;;;;;;2.71;100.00;101422.14;1725197;81;21056;-86
2022/02/11 00:06:46;;;;;;;43.98;32.50;;;;;;;2.71;100.00;101424.27;1735524;81;21042;-87
2022/02/11 00:09:10;;;;;;;54.90;33.90;;;;;;;2.71;100.00;101420.41;1716428;82;21148;-87
2022/02/11 00:11:40;;;;;;;48.80;33.42;;;;;;;2.73;100.00;101421.63;1709540;82;22256;-87
2022/02/11 00:14:10;;;;;;;46.48;33.33;;;;;;;2.75;100.00;101425.02;1735628;81;21587;-87
2022/02/11 00:16:40;;;;;;;48.63;32.98;;;;;;;2.74;100.00;101420.33;1729446;82;21117;-88
2022/02/11 00:19:07;;;;;;;48.97;35.07;;;;;;;2.76;100.00;101426.27;1718896;80;21026;-87
2022/02/11 00:21:35;;;;;;;56.75;38.20;;;;;;;2.77;100.00;101425.81;1744115;80;21212;-87
2022/02/11 00:24:04;;;;;;;59.67;39.50;;;;;;;2.77;100.00;101424.08;1764946;80;21747;-87
2022/02/11 00:26:37;;;;;;;57.98;39.10;;;;;;;2.79;100.00;101423.59;1765434;80;21109;-87
2022/02/11 00:34:30;;;;;;;62.03;40.00;;;;;;;2.77;100.00;101416.81;1751684;80;21093;-87
2022/02/11 00:37:06;;;;;;;62.90;39.85;;;;;;;2.76;100.00;101413.41;1713701;80;21156;-86
2022/02/11 01:03:54;;;;;;;53.48;35.08;;;;;;;2.68;100.00;101370.36;1738112;80;21050;-87
2022/02/11 01:06:02;;;;;;;57.85;35.73;;;;;;;2.67;100.00;101373.81;1740715;80;21219;-87
2022/02/11 01:08:30;;;;;;;54.08;36.03;;;;;;;2.65;100.00;101376.41;1723681;81;21114;-87
2022/02/11 01:11:01;;;;;;;52.95;35.35;;;;;;;2.62;100.00;101366.23;1758846;80;21048;-86
2022/02/11 01:13:25;;;;;;;56.35;36.48;;;;;;;2.60;100.00;101368.46;1753876;80;21006;-87
2022/02/11 01:16:01;;;;;;;56.30;35.00;;;;;;;2.60;100.00;101365.89;1715739;82;21088;-87
2022/02/11 01:18:22;;;;;;;59.80;37.58;;;;;;;2.59;100.00;101371.92;1726247;80;21420;-87
2022/02/11 01:20:59;;;;;;;53.50;34.60;;;;;;;2.61;100.00;101368.83;1742620;81;21065;-88
2022/02/11 01:23:45;;;;;;;57.62;36.00;;;;;;;2.61;100.00;101385.55;1740810;81;21030;-87
2022/02/11 01:28:41;;;;;;;53.17;35.45;;;;;;;2.67;100.00;101377.67;1736689;81;22205;-87
2022/02/11 01:45:03;;;;;;;50.73;34.45;;;;;;;2.71;100.00;101369.42;1682128;82;21543;-86
2022/02/11 01:53:05;;;;;;;49.00;32.38;;;;;;;2.65;100.00;101356.30;1652123;85;22016;-88
2022/02/11 01:55:49;;;;;;;48.92;32.00;;;;;;;2.64;100.00;101363.61;1685474;80;21159;-87
2022/02/11 02:04:30;;;;;;;53.78;32.93;;;;;;;2.56;100.00;101358.71;1721179;80;21700;-86
2022/02/11 02:05:56;;;;;;;51.10;33.48;;;;;;;2.51;100.00;101359.27;1690532;81;21017;-88
2022/02/11 02:11:23;;;;;;;50.00;32.25;;;;;;;2.45;100.00;101353.86;1734350;81;21081;-87
2022/02/11 02:13:44;;;;;;;44.48;29.87;;;;;;;2.32;100.00;101362.37;1715646;81;21016;-87
2022/02/11 02:19:03;;;;;;;45.83;31.37;;;;;;;2.30;100.00;101359.45;1728581;81;21154;-87
2022/02/11 02:26:41;;;;;;;45.50;31.90;;;;;;;2.30;100.00;101358.16;1734589;80;21066;-87
2022/02/11 02:56:38;;;;;;;48.98;33.65;;;;;;;2.27;100.00;101351.84;1753007;80;21084;-86
2022/02/11 02:59:00;;;;;;;51.15;33.80;;;;;;;2.27;100.00;101347.98;1756099;80;21159;-85
2022/02/11 03:01:37;;;;;;;53.42;33.73;;;;;;;2.29;100.00;101351.33;1755339;80;21157;-86
2022/02/11 04:56:35;;;;;;;69.60;42.53;;;;;;;4.80;100.00;101314.53;1733092;81;21145;-83
2022/02/11 05:01:46;;;;;;;53.80;38.08;;;;;;;4.60;100.00;101307.58;1753863;80;21114;-85
2022/02/11 05:04:13;;;;;;;52.10;35.92;;;;;;;4.32;100.00;101308.19;1743076;80;21220;-83
2022/02/11 05:06:42;;;;;;;53.13;35.68;;;;;;;4.10;100.00;101312.86;1732092;82;21145;-81
2022/02/11 05:09:12;;;;;;;55.23;34.25;;;;;;;3.93;100.00;101313.92;1639753;84;21550;-82
2022/02/11 05:11:39;;;;;;;54.50;35.50;;;;;;;3.75;100.00;101305.95;1644785;84;21090;-82
2022/02/11 05:14:06;;;;;;;46.58;33.23;;;;;;;3.60;100.00;101305.20;1730453;80;21042;-84
2022/02/11 05:16:35;;;;;;;44.77;32.23;;;;;;;3.46;100.00;101303.95;1726693;80;21068;-82
2022/02/11 05:19:02;;;;;;;41.75;30.68;;;;;;;3.37;100.00;101301.69;1729119;80;21517;-82
2022/02/11 05:21:29;;;;;;;48.80;32.17;;;;;;;3.31;100.00;101298.04;1701274;82;21054;-81
2022/02/11 05:23:56;;;;;;;42.30;29.80;;;;;;;3.20;100.00;101302.69;1734214;81;21047;-84
2022/02/11 05:26:23;;;;;;;41.85;29.65;;;;;;;3.12;100.00;101302.50;1719590;82;21113;-82
2022/02/11 05:28:52;;;;;;;45.00;30.48;;;;;;;3.11;100.00;101296.95;1741801;80;21102;-85
2022/02/11 05:31:22;;;;;;;39.73;28.70;;;;;;;3.09;100.00;101306.45;1715913;82;21114;-84
2022/02/11 05:33:49;;;;;;;45.48;30.52;;;;;;;3.09;100.00;101314.17;1727334;81;21065;-81
2022/02/11 05:36:17;;;;;;;44.42;29.63;;;;;;;3.08;100.00;101300.94;1722100;82;21035;-83
2022/02/11 05:38:45;;;;;;;43.05;28.38;;;;;;;3.04;100.00;101298.05;1734815;81;21588;-83
2022/02/11 05:41:12;;;;;;;42.55;28.80;;;;;;;3.01;100.00;101302.00;1744256;81;21228;-84
2022/02/11 05:43:41;;;;;;;38.70;27.35;;;;;;;2.99;100.00;101298.66;1731562;81;21638;-82
2022/02/11 05:46:10;;;;;;;44.88;28.80;;;;;;;2.94;100.00;101303.95;1722908;81;21042;-82
2022/02/11 05:48:39;;;;;;;43.85;29.72;;;;;;;2.90;100.00;101304.92;1741554;81;21572;-82
2022/02/11 05:51:07;;;;;;;40.75;28.15;;;;;;;2.82;100.00;101301.75;1714956;82;21014;-83
2022/02/11 05:53:35;;;;;;;45.45;27.62;;;;;;;2.75;100.00;101304.98;1739688;81;21147;-82
2022/02/11 05:56:03;;;;;;;36.50;27.73;;;;;;;2.73;100.00;101306.75;1736927;81;21038;-83
2022/02/11 05:58:30;;;;;;;48.87;29.05;;;;;;;2.72;100.00;101315.36;1741011;81;21559;-82
2022/02/11 06:00:58;;;;;;;37.93;27.98;;;;;;;2.70;100.00;101305.55;1717126;81;21105;-82
2022/02/11 06:03:25;;;;;;;38.67;26.02;;;;;;;2.70;100.00;101308.13;1740127;81;21164;-82
2022/02/11 06:05:52;;;;;;;40.00;28.47;;;;;;;2.70;100.00;101313.27;1738181;81;21404;-82
2022/02/11 06:08:20;;;;;;;38.70;26.87;;;;;;;2.71;100.00;101310.27;1734888;82;21642;-81
2022/02/11 06:10:48;;;;;;;41.10;27.67;;;;;;;2.69;100.00;101319.30;1733224;81;21105;-82
2022/02/11 06:13:17;;;;;;;34.30;26.17;;;;;;;2.69;100.00;101314.15;1734935;81;21093;-82
2022/02/11 06:15:45;;;;;;;35.75;26.68;;;;;;;2.70;100.00;101318.87;1713753;82;21098;-82
2022/02/11 06:18:14;;;;;;;37.05;27.05;;;;;;;2.70;100.00;101316.30;1736011;81;21113;-82
2022/02/11 06:20:41;;;;;;;36.25;26.62;;;;;;;2.71;100.00;101320.09;1720080;81;21641;-82
2022/02/11 06:23:09;;;;;;;39.35;28.83;;;;;;;2.70;100.00;101311.98;1741973;82;21006;-82
2022/02/11 06:25:36;;;;;;;36.70;27.25;;;;;;;2.71;100.00;101312.84;1737934;82;21552;-82
2022/02/11 06:28:03;;;;;;;40.48;28.45;;;;;;;2.70;100.00;101309.87;1740805;81;21046;-82
2022/02/11 06:30:30;;;;;;;32.55;26.90;;;;;;;2.69;100.00;101311.58;1737782;81;21070;-82
2022/02/11 06:32:57;;;;;;;39.75;29.77;;;;;;;2.68;100.00;101308.64;1739013;81;21288;-83
2022/02/11 06:35:26;;;;;;;39.65;29.77;;;;;;;2.67;100.00;101301.81;1736243;81;21047;-82
2022/02/11 06:37:54;;;;;;;42.05;28.98;;;;;;;2.66;100.00;101302.69;1718597;81;21096;-82
2022/02/11 06:40:20;;;;;;;37.58;29.02;;;;;;;2.63;100.00;101298.92;1740896;81;21011;-82
2022/02/11 06:42:47;;;;;;;39.73;30.12;;;;;;;2.58;100.00;101298.23;1738769;81;21123;-82
2022/02/11 06:45:20;;;;;;;41.83;30.25;;;;;;;2.58;100.00;101298.23;1744044;80;21203;-84
2022/02/11 06:47:58;;;;;;;43.40;33.00;;;;;;;2.58;100.00;101299.52;1703639;80;21575;-88
2022/02/11 06:50:25;;;;;;;52.83;38.35;;;;;;;2.54;100.00;101294.91;1750338;80;21065;-84
2022/02/11 06:52:55;;;;;;;76.85;47.13;;;;;;;2.52;100.00;101297.51;1726876;80;21070;-83
2022/02/11 06:55:24;;;;;;;75.35;46.35;;;;;;;2.52;100.00;101294.94;1709990;80;21188;-83
2022/02/11 06:57:52;;;;;;;70.12;45.58;;;;;;;2.54;100.00;101287.20;1765792;80;21058;-83
2022/02/11 07:00:21;;;;;;;68.12;46.45;;;;;;;2.55;100.00;101286.31;1735622;80;21084;-82
2022/02/11 07:02:48;;;;;;;55.95;40.10;;;;;;;2.52;100.00;101276.94;1717702;80;21467;-82
2022/02/11 07:05:16;;;;;;;50.70;36.53;;;;;;;2.54;100.00;101280.77;1681825;83;21689;-82
2022/02/11 07:07:43;;;;;;;44.73;32.78;;;;;;;2.55;100.00;101275.17;1729145;81;21618;-89
2022/02/11 07:10:11;;;;;;;45.28;32.17;;;;;;;2.56;100.00;101276.86;1729820;80;21031;-88
2022/02/11 07:12:39;;;;;;;42.98;31.45;;;;;;;2.58;100.00;101276.38;1720273;80;21046;-88
2022/02/11 07:15:10;;;;;;;41.37;31.55;;;;;;;2.61;100.00;101271.98;1750384;80;21034;-83
2022/02/11 07:17:38;;;;;;;50.12;32.80;;;;;;;2.61;100.00;101265.55;1741285;81;21423;-82
2022/02/11 07:20:07;;;;;;;40.78;31.23;;;;;;;2.65;100.00;101266.29;1739096;82;21822;-83
2022/02/11 07:22:34;;;;;;;43.25;32.05;;;;;;;2.62;100.00;101261.23;1740249;80;21031;-82
2022/02/11 07:25:09;;;;;;;45.58;33.65;;;;;;;2.66;100.00;101263.66;1696649;83;21063;-83
2022/02/11 07:27:37;;;;;;;43.33;31.55;;;;;;;2.68;100.00;101259.77;1675778;85;21083;-82
2022/02/11 07:30:06;;;;;;;39.70;30.70;;;;;;;2.71;100.00;101253.23;1667799;83;21106;-83
2022/02/11 07:32:34;;;;;;;39.53;28.17;;;;;;;2.73;100.00;101250.59;1648371;85;21114;-83
2022/02/11 07:35:02;;;;;;;34.15;26.48;;;;;;;2.75;100.00;101253.55;1713837;82;21090;-85
2022/02/11 07:37:31;;;;;;;31.93;25.27;;;;;;;2.81;100.00;101254.63;1682261;84;21579;-83
2022/02/11 07:39:59;;;;;;;31.68;25.25;;;;;;;2.81;100.00;101254.63;1657120;85;21110;-83
2022/02/11 07:42:29;;;;;;;31.00;23.20;;;;;;;2.88;100.00;101249.27;1698205;83;21051;-82
2022/02/11 07:44:57;;;;;;;29.77;22.25;;;;;;;2.94;100.00;101252.50;1705383;83;21146;-82
2022/02/11 07:47:31;;;;;;;30.10;22.67;;;;;;;2.97;100.00;101244.66;1647589;84;21078;-82
2022/02/11 07:49:56;;;;;;;29.20;22.32;;;;;;;3.01;100.00;101242.82;1678567;84;21580;-86
2022/02/11 07:52:23;;;;;;;33.50;25.08;;;;;;;3.05;100.00;101244.84;1675575;83;21077;-82
2022/02/11 07:54:51;;;;;;;30.12;22.73;;;;;;;3.06;100.00;101237.52;1681078;84;21071;-88
2022/02/11 07:57:20;;;;;;;33.80;25.08;;;;;;;3.03;100.00;101233.32;1679852;83;21133;-82
2022/02/11 07:59:48;;;;;;;32.93;24.43;;;;;;;3.05;100.00;101229.41;1722514;80;21080;-87
2022/02/11 08:02:17;;;;;;;32.15;23.45;;;;;;;3.04;100.00;101227.75;1730887;80;21552;-83
2022/02/11 08:04:44;;;;;;;31.73;22.60;;;;;;;3.05;100.00;101226.83;1709825;82;21085;-83
2022/02/11 08:07:13;;;;;;;30.08;22.55;;;;;;;3.02;100.00;101226.95;1740943;81;21558;-86
2022/02/11 08:09:41;;;;;;;30.35;22.85;;;;;;;2.98;100.00;101231.36;1738973;81;21540;-86
2022/02/11 08:12:08;;;;;;;30.10;22.20;;;;;;;2.95;100.00;101231.45;1738680;80;21116;-88
2022/02/11 08:14:36;;;;;;;31.42;23.22;;;;;;;2.92;100.00;101230.28;1737131;80;21056;-88
2022/02/11 08:17:03;;;;;;;29.87;21.55;;;;;;;2.90;100.00;101226.45;1733697;81;21033;-87
2022/02/11 08:19:31;;;;;;;32.33;23.40;;;;;;;2.89;100.00;101220.09;1711095;81;21043;-85
2022/02/11 08:22:00;;;;;;;32.08;23.40;;;;;;;2.90;100.00;101221.77;1718511;81;21055;-84
2022/02/11 08:24:28;;;;;;;32.42;23.47;;;;;;;2.93;100.00;101219.94;1712189;81;21634;-84
2022/02/11 08:26:55;;;;;;;32.78;22.65;;;;;;;2.94;100.00;101224.63;1737079;82;21677;-84
2022/02/11 08:29:25;;;;;;;31.82;22.67;;;;;;;2.95;100.00;101221.16;1705697;81;21041;-84
2022/02/11 08:31:55;;;;;;;35.65;23.30;;;;;;;2.95;100.00;101222.45;1717444;81;21444;-83
2022/02/11 08:34:25;;;;;;;35.33;23.62;;;;;;;2.96;100.00;101206.13;1738975;81;21754;-85
2022/02/11 08:36:52;;;;;;;33.00;23.57;;;;;;;2.98;100.00;101212.06;1723763;81;21535;-84
2022/02/11 08:39:20;;;;;;;38.35;25.20;;;;;;;2.98;100.00;101214.64;1721456;82;21053;-84
2022/02/11 08:41:48;;;;;;;32.45;22.32;;;;;;;2.98;100.00;101215.47;1721028;81;21196;-85
2022/02/11 08:44:16;;;;;;;41.42;25.77;;;;;;;2.99;100.00;101206.03;1708491;82;21101;-84
2022/02/11 08:46:43;;;;;;;39.08;25.05;;;;;;;2.99;100.00;101207.32;1716159;82;21097;-89
2022/02/11 08:49:11;;;;;;;34.13;23.65;;;;;;;3.00;100.00;101205.14;1739127;80;21123;-85
2022/02/11 08:51:39;;;;;;;37.17;26.12;;;;;;;2.99;100.00;101206.03;1741067;80;21599;-87
2022/02/11 08:54:08;;;;;;;36.88;25.45;;;;;;;2.97;100.00;101205.23;1735074;82;21082;-85
2022/02/11 08:56:38;;;;;;;33.70;23.92;;;;;;;2.97;100.00;101198.80;1733582;80;21566;-89
2022/02/11 08:59:05;;;;;;;37.23;23.90;;;;;;;3.01;100.00;101200.36;1743703;80;21153;-85
2022/02/11 09:01:33;;;;;;;34.03;23.77;;;;;;;3.03;100.00;101186.18;1738888;80;21137;-86
2022/02/11 09:04:01;;;;;;;38.15;25.00;;;;;;;3.09;100.00;101191.11;1762877;80;21039;-89
2022/02/11 09:06:27;;;;;;;37.93;25.50;;;;;;;3.11;100.00;101181.15;1739967;80;21057;-87
2022/02/11 09:08:55;;;;;;;36.73;25.30;;;;;;;3.15;100.00;101177.59;1713096;81;21034;-87
2022/02/11 09:11:23;;;;;;;40.03;25.17;;;;;;;3.19;100.00;101173.60;1740886;81;21718;-87
2022/02/11 09:13:52;;;;;;;38.25;24.23;;;;;;;3.20;100.00;101168.42;1720421;80;21089;-87
2022/02/11 09:16:19;;;;;;;39.23;24.80;;;;;;;3.22;100.00;101163.22;1740192;80;21605;-87
2022/02/11 09:18:46;;;;;;;37.93;25.12;;;;;;;3.23;100.00;101159.28;1738697;80;21034;-88
2022/02/11 09:21:13;;;;;;;35.85;24.02;;;;;;;3.27;100.00;101161.30;1737497;81;21069;-87
2022/02/11 09:23:40;;;;;;;36.55;25.25;;;;;;;3.30;100.00;101157.34;1732917;80;21132;-87
2022/02/11 09:26:08;;;;;;;35.08;23.98;;;;;;;3.32;100.00;101149.13;1705465;81;21152;-86
2022/02/11 09:28:36;;;;;;;39.27;26.02;;;;;;;3.35;100.00;101149.00;1740441;80;21484;-87
2022/02/11 09:31:48;;;;;;;38.05;26.93;;;;;;;3.38;100.00;101155.33;1741873;81;21076;-86
2022/02/11 09:34:15;;;;;;;42.58;26.07;;;;;;;3.39;100.00;101145.43;1680357;83;21734;-87
2022/02/11 09:36:42;;;;;;;38.88;25.05;;;;;;;3.43;100.00;101145.69;1679232;81;21786;-87
2022/02/11 09:39:11;;;;;;;36.00;25.20;;;;;;;3.46;100.00;101139.59;1679881;83;21094;-86
2022/02/11 09:41:39;;;;;;;39.33;24.32;;;;;;;3.50;100.00;101140.31;1685751;83;21051;-87
2022/02/11 09:44:07;;;;;;;36.30;23.85;;;;;;;3.53;100.00;101139.75;1742768;81;20998;-87
2022/02/11 09:46:39;;;;;;;34.73;24.10;;;;;;;3.57;100.00;101135.32;1754134;80;21156;-86
2022/02/11 09:49:07;;;;;;;34.40;23.38;;;;;;;3.60;100.00;101137.36;1757519;80;21614;-88
2022/02/11 09:51:35;;;;;;;37.98;23.67;;;;;;;3.67;100.00;101134.09;1719505;80;21002;-88
2022/02/11 09:54:21;;;;;;;32.85;22.50;;;;;;;3.72;100.00;101124.90;1726331;82;21626;-88
2022/02/11 09:56:50;;;;;;;32.13;21.02;;;;;;;3.78;100.00;101126.80;1717786;82;21073;-87
2022/02/11 09:59:18;;;;;;;33.38;21.48;;;;;;;3.84;100.00;101117.14;1710214;82;21530;-87
2022/02/11 10:01:48;;;;;;;34.35;22.77;;;;;;;3.89;100.00;101115.22;1693415;83;21976;-88
2022/02/11 10:04:22;;;;;;;32.35;22.75;;;;;;;3.95;100.00;101115.00;1704224;82;21560;-87
2022/02/11 10:06:51;;;;;;;38.60;23.75;;;;;;;4.03;100.00;101105.23;1701872;82;21049;-89
2022/02/11 10:09:22;;;;;;;34.03;23.32;;;;;;;4.09;100.00;101103.69;1689932;83;21082;-86
2022/02/11 10:11:52;;;;;;;32.70;22.85;;;;;;;4.14;100.00;101101.36;1711444;81;21702;-91
2022/02/11 10:14:27;;;;;;;32.45;23.25;;;;;;;4.19;100.00;101102.86;1703721;83;21794;-87
2022/02/11 10:16:58;;;;;;;34.65;22.90;;;;;;;4.25;100.00;101096.62;1711583;83;21087;-91
2022/02/11 10:19:55;;;;;;;30.48;22.55;;;;;;;4.34;100.00;101097.97;1694610;82;21089;-87
2022/02/11 10:22:28;;;;;;;31.15;21.73;;;;;;;4.40;100.00;101095.98;1721833;82;21073;-86
2022/02/11 10:24:57;;;;;;;28.02;20.77;;;;;;;4.50;100.00;101093.03;1690707;82;21142;-86
2022/02/11 10:27:34;;;;;;;27.62;20.60;;;;;;;4.55;100.00;101088.07;1728116;81;21156;-89
2022/02/11 10:30:09;;;;;;;27.85;19.87;;;;;;;4.64;100.00;101080.84;1742908;81;21180;-89
2022/02/11 10:32:43;;;;;;;26.93;19.73;;;;;;;4.71;100.00;101080.50;1673357;83;21597;-86
2022/02/11 10:35:15;;;;;;;27.10;19.82;;;;;;;4.80;100.00;101082.30;1710261;82;21035;-86
2022/02/11 10:38:13;;;;;;;27.48;19.32;;;;;;;4.88;100.00;101075.91;1691426;82;21065;-88
2022/02/11 10:40:43;;;;;;;28.15;17.82;;;;;;;4.98;100.00;101073.76;1711409;82;21423;-87
2022/02/11 10:43:29;;;;;;;54.65;19.32;;;;;;;5.10;100.00;101067.64;1711022;81;21116;-91
2022/02/11 10:46:01;;;;;;;34.27;18.23;;;;;;;5.24;100.00;101062.72;1722812;81;21080;-87
2022/02/11 10:48:35;;;;;;;38.35;17.35;;;;;;;5.53;100.00;101074.73;1706458;82;21085;-86
2022/02/11 10:51:01;;;;;;;36.20;18.77;;;;;;;5.69;100.00;101070.96;1699692;82;21021;-85
2022/02/11 10:53:37;;;;;;;36.55;16.48;;;;;;;5.87;100.00;101069.70;1723496;82;21164;-90
2022/02/11 10:56:05;;;;;;;30.70;16.48;;;;;;;6.06;100.00;101070.97;1707480;81;21090;-88
2022/02/11 10:58:32;;;;;;;23.07;16.17;;;;;;;6.21;100.00;101058.58;1714117;82;21259;-87
2022/02/11 11:01:03;;;;;;;31.70;16.67;;;;;;;6.32;100.00;101056.77;1692796;82;21713;-85
2022/02/11 11:03:34;;;;;;;24.65;17.50;;;;;;;6.31;100.00;101050.75;1605413;87;21173;-88
2022/02/11 11:06:08;;;;;;;19.23;16.87;;;;;;;6.31;100.00;101045.58;1621235;86;22899;-86
2022/02/11 11:08:42;;;;;;;23.00;16.37;;;;;;;6.33;100.00;101036.44;1690716;83;21094;-89
2022/02/11 11:11:11;;;;;;;28.10;17.20;;;;;;;6.36;100.00;101036.30;1715707;82;21386;-89
2022/02/11 11:13:42;;;;;;;27.80;18.95;;;;;;;6.48;100.00;101028.36;1685127;83;21094;-84
2022/02/11 11:16:17;;;;;;;26.70;16.32;;;;;;;6.63;100.00;101023.69;1674775;84;27331;-86
2022/02/11 11:18:47;;;;;;;22.22;14.23;;;;;;;6.80;100.00;101021.97;1700205;82;21091;-84
2022/02/11 11:21:16;;;;;;;16.40;13.68;;;;;;;6.97;100.00;101022.36;1706269;83;21074;-84
2022/02/11 11:23:57;;;;;;;24.07;14.33;;;;;;;7.11;100.00;101021.62;1667823;83;22109;-84
2022/02/11 11:26:42;;;;;;;18.47;13.17;;;;;;;7.23;100.00;101020.12;1701679;82;20994;-86
2022/02/11 11:29:22;;;;;;;20.95;13.53;;;;;;;7.29;100.00;101021.07;1697258;82;21114;-87
2022/02/11 11:31:59;;;;;;;15.90;11.65;;;;;;;7.32;100.00;101018.80;1695293;81;21638;-85
2022/02/11 11:34:33;;;;;;;13.03;11.25;;;;;;;7.32;100.00;101014.91;1668456;84;21576;-89
2022/02/11 11:37:08;;;;;;;15.63;10.93;;;;;;;7.32;100.00;101009.73;1673767;82;21667;-83
2022/02/11 11:39:40;;;;;;;15.05;10.88;;;;;;;7.29;100.00;101008.59;1716289;82;21105;-83
2022/02/11 11:42:14;;;;;;;17.67;10.38;;;;;;;7.28;100.00;101009.06;1692386;83;22153;-88
2022/02/11 11:44:52;;;;;;;16.50;11.40;;;;;;;7.28;100.00;101010.80;1698621;82;21119;-84
2022/02/11 11:47:29;;;;;;;12.53;10.43;;;;;;;7.25;100.00;101009.22;1729387;82;21035;-82
2022/02/11 11:49:58;;;;;;;13.10;11.00;;;;;;;7.23;100.00;101006.73;1742722;81;21109;-83
2022/02/11 11:52:54;;;;;;;13.60;10.40;;;;;;;7.18;100.00;101011.30;1729615;81;21890;-86
2022/02/11 11:55:22;;;;;;;12.82;10.60;;;;;;;7.13;100.00;101012.02;1692595;83;21045;-89
2022/02/11 11:57:52;;;;;;;13.53;10.93;;;;;;;7.08;100.00;101004.97;1689464;83;21153;-83
2022/02/11 12:00:41;;;;;;;14.65;11.00;;;;;;;7.05;100.00;101010.30;1658601;83;21040;-84
2022/02/11 12:03:10;;;;;;;16.17;11.25;;;;;;;7.05;100.00;100999.47;1688877;82;21125;-89
2022/02/11 12:05:53;;;;;;;15.55;11.12;;;;;;;7.05;100.00;101002.06;1711047;82;21100;-83
2022/02/11 12:08:16;;;;;;;16.95;10.85;;;;;;;7.05;100.00;100998.66;1693685;83;21591;-85
2022/02/11 12:10:47;;;;;;;14.20;10.55;;;;;;;7.06;100.00;100993.86;1669269;83;21143;-84
2022/02/11 12:13:17;;;;;;;13.98;11.10;;;;;;;7.04;100.00;100991.80;1696046;82;21111;-84
2022/02/11 12:15:45;;;;;;;13.95;10.95;;;;;;;7.02;100.00;100989.75;1698705;82;21046;-90
2022/02/11 12:18:12;;;;;;;14.63;10.88;;;;;;;7.00;100.00;100996.78;1713202;82;21064;-84
2022/02/11 12:20:43;;;;;;;16.77;10.35;;;;;;;6.98;100.00;100998.61;1686107;82;21156;-85
2022/02/11 12:28:46;;;;;;;13.78;10.82;;;;;;;6.93;100.00;101007.92;1719236;82;21022;-84
2022/02/11 12:31:25;;;;;;;13.78;10.58;;;;;;;6.90;100.00;101005.05;1700796;82;21425;-84
2022/02/11 12:34:12;;;;;;;16.80;11.10;;;;;;;6.90;100.00;101003.75;1711259;82;21129;-84
2022/02/11 12:36:39;;;;;;;12.30;10.05;;;;;;;6.86;100.00;100994.92;1693037;82;21711;-84
2022/02/11 12:39:07;;;;;;;12.73;9.80;;;;;;;6.82;100.00;100992.96;1698061;82;21024;-91
2022/02/11 12:41:50;;;;;;;12.78;9.98;;;;;;;6.82;100.00;100995.99;1708140;82;21626;-92
2022/02/11 12:44:31;;;;;;;13.70;10.13;;;;;;;6.81;100.00;100995.64;1726805;82;21047;-91
2022/02/11 12:47:00;;;;;;;16.93;10.13;;;;;;;6.80;100.00;100990.91;1696903;83;21039;-90
2022/02/11 12:49:33;;;;;;;15.78;11.15;;;;;;;6.79;100.00;100990.09;1721868;82;21079;-89
2022/02/11 12:52:01;;;;;;;13.48;10.80;;;;;;;6.79;100.00;100983.61;1698110;82;21095;-91
2022/02/11 12:54:30;;;;;;;13.15;10.80;;;;;;;6.80;100.00;100987.02;1699817;83;21089;-90
2022/02/11 12:57:05;;;;;;;13.80;10.60;;;;;;;6.79;100.00;100991.82;1715306;82;22286;-90
2022/02/11 12:59:40;;;;;;;15.50;11.57;;;;;;;6.81;100.00;100991.77;1719860;82;21566;-91
2022/02/11 13:02:30;;;;;;;13.65;11.63;;;;;;;6.80;100.00;100993.50;1707319;82;21111;-91
2022/02/11 13:05:10;;;;;;;16.15;12.75;;;;;;;6.78;100.00;100992.30;1719325;82;21057;-89
2022/02/11 13:11:37;;;;;;;17.25;14.15;;;;;;;6.76;100.00;100984.23;1724645;82;21560;-90
2022/02/11 13:14:08;;;;;;;20.12;13.68;;;;;;;6.73;100.00;100984.39;1659941;84;21205;-89
2022/02/11 13:16:37;;;;;;;17.98;14.13;;;;;;;6.72;100.00;100987.45;1666401;84;21847;-89
2022/02/11 13:19:14;;;;;;;18.25;15.32;;;;;;;6.71;100.00;100991.39;1661652;84;21132;-91
2022/02/11 13:21:43;;;;;;;21.62;15.55;;;;;;;6.68;100.00;100982.52;1703808;81;21625;-93
2022/02/11 13:24:11;;;;;;;19.85;15.35;;;;;;;6.67;100.00;100989.89;1710491;82;21148;-91
2022/02/11 13:26:38;;;;;;;17.87;15.65;;;;;;;6.63;100.00;100986.16;1711516;82;21509;-89
2022/02/11 13:29:13;;;;;;;22.45;16.60;;;;;;;6.62;100.00;100984.48;1658767;83;21827;-89
2022/02/11 13:31:51;;;;;;;20.25;15.55;;;;;;;6.63;100.00;100988.75;1655355;85;21078;-91
2022/02/11 13:34:20;;;;;;;23.40;17.02;;;;;;;6.63;100.00;100990.05;1722724;81;21064;-92
2022/02/11 13:36:50;;;;;;;27.75;17.35;;;;;;;6.61;100.00;100986.70;1684809;82;21144;-90
2022/02/11 13:39:34;;;;;;;22.25;16.15;;;;;;;6.59;100.00;100985.96;1696213;81;21125;-89
2022/02/11 13:42:12;;;;;;;19.67;15.08;;;;;;;6.60;100.00;100986.34;1700867;81;21149;-94
2022/02/11 13:44:40;;;;;;;18.15;14.98;;;;;;;6.58;100.00;100988.61;1706771;81;21082;-91
2022/02/11 13:47:16;;;;;;;23.38;14.83;;;;;;;6.57;100.00;100987.78;1701321;82;21561;-92
2022/02/11 13:49:43;;;;;;;17.02;14.40;;;;;;;6.57;100.00;100983.91;1675561;83;21077;-92
2022/02/11 13:55:03;;;;;;;17.77;14.53;;;;;;;6.53;100.00;100990.14;1718837;81;21643;-90
2022/02/11 13:57:35;;;;;;;18.10;15.13;;;;;;;6.49;100.00;100991.23;1706734;82;20969;-91
2022/02/11 14:00:37;;;;;;;18.25;15.43;;;;;;;6.44;100.00;100987.59;1694554;83;33413;-92
2022/02/11 14:03:05;;;;;;;18.23;14.60;;;;;;;6.40;100.00;100984.80;1703048;82;21063;-91
2022/02/11 14:05:47;;;;;;;18.67;14.68;;;;;;;6.36;100.00;100980.68;1702277;82;21034;-92
2022/02/11 14:08:15;;;;;;;17.30;13.65;;;;;;;6.36;100.00;100982.44;1711797;82;21177;-91
2022/02/11 14:10:43;;;;;;;18.27;14.23;;;;;;;6.33;100.00;100986.47;1697143;83;21574;-92
2022/02/11 14:13:10;;;;;;;17.50;13.85;;;;;;;6.29;100.00;100986.61;1716063;81;21062;-92
2022/02/11 14:15:41;;;;;;;19.32;15.18;;;;;;;6.26;100.00;100979.47;1716086;81;21045;-92
2022/02/11 14:18:08;;;;;;;53.85;22.77;;;;;;;6.23;100.00;100975.77;1707473;82;21117;-93
2022/02/11 14:20:39;;;;;;;27.30;17.20;;;;;;;6.20;100.00;100970.30;1721493;81;21062;-92
2022/02/11 14:23:18;;;;;;;19.30;14.68;;;;;;;6.21;100.00;100965.48;1687287;81;21097;-91
2022/02/11 14:25:46;;;;;;;21.45;17.48;;;;;;;6.23;100.00;100971.41;1708415;82;21074;-92
2022/02/11 14:28:16;;;;;;;26.50;19.92;;;;;;;6.23;100.00;100966.72;1713529;82;21045;-92
2022/02/11 14:30:45;;;;;;;22.65;19.98;;;;;;;6.20;100.00;100963.84;1711826;82;21010;-92
2022/02/11 14:33:13;;;;;;;21.62;19.30;;;;;;;6.18;100.00;100966.09;1717908;82;21199;-91
2022/02/11 14:35:42;;;;;;;20.75;18.57;;;;;;;6.16;100.00;100959.72;1702387;81;21648;-91
2022/02/11 14:38:10;;;;;;;22.67;19.75;;;;;;;6.16;100.00;100962.30;1702405;83;21137;-90
2022/02/11 14:41:45;;;;;;;28.27;21.23;;;;;;;6.14;100.00;100955.07;1695325;83;21085;-91
2022/02/11 14:43:09;;;;;;;37.38;29.35;;;;;;;6.13;100.00;100958.57;1695331;82;21051;-92
2022/02/11 14:45:37;;;;;;;41.20;31.73;;;;;;;6.07;100.00;100964.06;1713105;82;22007;-91
2022/02/11 14:48:04;;;;;;;38.28;29.72;;;;;;;5.98;100.00;100964.87;1699449;82;21144;-92
2022/02/11 14:50:31;;;;;;;38.65;26.60;;;;;;;5.91;100.00;100974.31;1713709;81;21155;-92
2022/02/11 14:53:02;;;;;;;39.03;31.68;;;;;;;5.81;100.00;100972.19;1719009;81;21563;-93
2022/02/11 14:55:30;;;;;;;41.50;30.00;;;;;;;5.73;100.00;100973.48;1693082;83;21149;-91
2022/02/11 14:57:58;;;;;;;48.23;38.17;;;;;;;5.67;100.00;100978.48;1711011;81;21700;-91
2022/02/11 15:00:25;;;;;;;47.25;35.10;;;;;;;5.62;100.00;100969.67;1715228;81;21058;-90
2022/02/11 15:02:52;;;;;;;49.10;37.28;;;;;;;5.62;100.00;100970.11;1683905;82;21582;-92
2022/02/11 15:05:19;;;;;;;41.08;33.10;;;;;;;5.58;100.00;100970.71;1704023;82;21295;-92
2022/02/11 15:07:48;;;;;;;43.02;32.95;;;;;;;5.57;100.00;100973.38;1690420;82;21053;-89